Terminal Aerodrome Forecast
Issued by NWS Charleston, WV

Current Version | Previous Version | Graphics & Text | Print | Product List | Glossary On
Versions: 1 2 3 4 5 6 7 8 9 10 11 12 13 14 15 16 17 18 19 20 21 22 23 24 25
000
FTUS41 KRLX 021908 AAB
TAFHTS
TAF AMD
KHTS 021908Z 0219/0318 23008KT 6SM SHRA VCTS SCT025 BKN040CB
      TEMPO 0220/0224 3SM SHRA BKN025
     FM030000 24006KT 3SM SHRA BR VCTS SCT015 OVC025CB
     FM030200 VRB03KT 2SM SHRA BR SCT001 OVC015
     FM030500 VRB02KT 1SM BR SCT001 OVC006
     FM031200 31004KT 3SM BR BKN008
     FM031400 30005KT 6SM BR BKN012
     FM031600 30007KT P6SM BKN025=

USA.gov is the U.S. government's official web portal to all federal, state and local government web resources and services.